Time;durP1;ratioP1;P1;durP2;ratioP2;P2;SDS_P1;SDS_P2;PMS_P1;PMS_P2;Temp;Humidity;BMP_temperature;BMP_pressure;BME280_temperature;BME280_humidity;BME280_pressure;Samples;Min_cycle;Max_cycle;Signal;HPM_P1;HPM_P2
2023/07/11 00:02:09;;;;;;;6.05;3.70;;;22.80;82.30;;;;;;5024889;28;20107;-70
2023/07/11 00:04:36;;;;;;;6.55;4.05;;;22.80;82.30;;;;;;5022012;28;20029;-71
2023/07/11 00:07:02;;;;;;;5.47;3.58;;;22.80;82.50;;;;;;5028790;28;20036;-70
2023/07/11 00:09:27;;;;;;;7.00;3.92;;;22.70;82.70;;;;;;5021417;28;20030;-71
2023/07/11 00:11:53;;;;;;;6.03;3.42;;;22.70;82.70;;;;;;5024531;28;20100;-71
2023/07/11 00:14:19;;;;;;;4.57;3.50;;;22.50;82.50;;;;;;5027718;28;20040;-71
2023/07/11 00:16:45;;;;;;;6.97;4.10;;;22.50;82.80;;;;;;5025623;28;20021;-71
2023/07/11 00:19:11;;;;;;;6.20;4.05;;;22.50;82.90;;;;;;5027163;28;20391;-71
2023/07/11 00:21:36;;;;;;;5.30;3.85;;;22.50;83.00;;;;;;5026789;28;20040;-71
2023/07/11 00:24:05;;;;;;;7.18;4.18;;;22.50;83.00;;;;;;5027612;28;20029;-71
2023/07/11 00:26:31;;;;;;;4.28;3.53;;;22.50;83.10;;;;;;5023712;28;20029;-71
2023/07/11 00:29:00;;;;;;;6.53;3.88;;;22.40;83.20;;;;;;5025750;28;20091;-72
2023/07/11 00:31:26;;;;;;;5.97;3.65;;;22.40;83.30;;;;;;5039334;23;20049;-76
2023/07/11 00:33:52;;;;;;;7.50;3.63;;;22.40;83.30;;;;;;5032140;28;20273;-76
2023/07/11 00:36:17;;;;;;;7.03;3.92;;;22.30;83.40;;;;;;5032288;28;20025;-76
2023/07/11 00:38:43;;;;;;;9.32;4.05;;;22.30;83.50;;;;;;5031828;28;20033;-76
2023/07/11 00:41:15;;;;;;;5.05;3.25;;;22.40;83.60;;;;;;5034046;28;20101;-85
2023/07/11 00:43:40;;;;;;;5.68;3.85;;;22.30;83.50;;;;;;5010084;28;20035;-86
2023/07/11 00:46:21;;;;;;;5.95;3.88;;;22.40;83.30;;;;;;5033477;28;20120;-86
2023/07/11 00:48:55;;;;;;;5.32;4.00;;;22.40;83.30;;;;;;5034855;28;20025;-86
2023/07/11 00:51:35;;;;;;;5.32;3.38;;;22.40;83.20;;;;;;5033949;28;20397;-85
2023/07/11 00:54:06;;;;;;;5.07;3.72;;;22.40;83.10;;;;;;5033553;28;20022;-85
2023/07/11 00:56:38;;;;;;;5.03;3.28;;;22.40;83.10;;;;;;5034740;28;20384;-85
2023/07/11 00:59:07;;;;;;;9.70;3.83;;;22.30;83.10;;;;;;5033493;28;20412;-85
2023/07/11 01:01:33;;;;;;;8.02;4.15;;;22.30;83.00;;;;;;5032779;28;20021;-85
2023/07/11 01:03:59;;;;;;;5.20;3.85;;;22.30;83.10;;;;;;5032710;28;20030;-86
2023/07/11 01:06:29;;;;;;;5.80;4.35;;;22.30;83.30;;;;;;5037448;28;20026;-86
2023/07/11 01:08:56;;;;;;;10.00;3.63;;;22.20;83.50;;;;;;5017635;28;20026;-85
2023/07/11 01:11:24;;;;;;;6.22;3.75;;;22.20;83.50;;;;;;5040715;28;20036;-86
2023/07/11 01:13:50;;;;;;;4.82;3.50;;;22.20;83.70;;;;;;5056998;28;20017;-85
2023/07/11 01:16:16;;;;;;;4.63;3.80;;;22.10;83.70;;;;;;5057462;28;20029;-85
2023/07/11 01:18:43;;;;;;;6.43;3.65;;;22.10;83.80;;;;;;5043057;28;20022;-85
2023/07/11 01:21:13;;;;;;;5.65;4.07;;;22.10;83.70;;;;;;5044841;28;20024;-85
2023/07/11 01:23:38;;;;;;;4.57;3.60;;;22.10;83.80;;;;;;5036746;28;20026;-85
2023/07/11 01:26:07;;;;;;;5.15;3.70;;;22.10;83.80;;;;;;5036620;28;20507;-85
2023/07/11 01:28:33;;;;;;;5.88;3.70;;;22.10;83.80;;;;;;5037193;28;20029;-85
2023/07/11 01:30:59;;;;;;;6.35;3.42;;;22.10;83.70;;;;;;5054384;28;20064;-86
2023/07/11 01:33:26;;;;;;;5.60;3.35;;;22.10;83.50;;;;;;5057112;28;20024;-85
2023/07/11 01:35:53;;;;;;;4.45;3.38;;;22.10;83.60;;;;;;5039872;28;20084;-86
2023/07/11 01:38:20;;;;;;;6.25;3.35;;;22.10;83.60;;;;;;5036871;28;20021;-85
2023/07/11 01:40:47;;;;;;;7.63;3.88;;;22.00;83.60;;;;;;5045665;28;20032;-86
2023/07/11 01:43:15;;;;;;;7.70;3.95;;;22.00;83.80;;;;;;5036195;28;20025;-86
2023/07/11 01:45:40;;;;;;;6.28;4.25;;;22.00;84.00;;;;;;5035831;28;20036;-85
2023/07/11 01:48:06;;;;;;;6.07;4.30;;;22.00;84.10;;;;;;5036212;28;20053;-86
2023/07/11 01:50:32;;;;;;;6.82;4.65;;;22.00;84.30;;;;;;5036133;28;20034;-86
2023/07/11 01:52:58;;;;;;;5.50;4.00;;;22.00;84.50;;;;;;5036104;28;20033;-86
2023/07/11 01:55:26;;;;;;;5.05;3.58;;;21.90;84.70;;;;;;5035803;28;20076;-86
2023/07/11 01:57:54;;;;;;;5.40;3.70;;;21.90;84.70;;;;;;5037001;28;20046;-85
2023/07/11 02:00:23;;;;;;;6.60;4.15;;;21.90;84.80;;;;;;5036603;28;20052;-86
2023/07/11 02:02:49;;;;;;;7.22;3.72;;;21.90;84.80;;;;;;5035787;28;20120;-86
2023/07/11 02:05:15;;;;;;;7.35;4.00;;;21.90;84.80;;;;;;5047425;28;20060;-85
2023/07/11 02:07:43;;;;;;;8.80;4.43;;;21.90;84.90;;;;;;5055958;28;20097;-86
2023/07/11 02:10:09;;;;;;;4.63;3.30;;;21.90;84.70;;;;;;5052794;28;20025;-86
2023/07/11 02:12:34;;;;;;;9.25;3.58;;;21.90;84.50;;;;;;5035913;28;20116;-85
2023/07/11 02:15:00;;;;;;;6.43;3.58;;;21.80;84.40;;;;;;5068406;28;20071;-85
2023/07/11 02:17:26;;;;;;;4.95;3.45;;;21.80;84.30;;;;;;5052900;28;20035;-86
2023/07/11 02:19:54;;;;;;;8.82;3.75;;;21.80;84.40;;;;;;5056443;28;20021;-86
2023/07/11 02:22:22;;;;;;;7.30;4.07;;;21.80;84.70;;;;;;5050971;28;20036;-86
2023/07/11 02:24:48;;;;;;;7.20;4.00;;;21.80;84.90;;;;;;5036152;28;20403;-85
2023/07/11 02:27:14;;;;;;;4.57;3.50;;;21.80;84.80;;;;;;5037139;28;20124;-86
2023/07/11 02:29:39;;;;;;;6.18;4.22;;;21.80;84.90;;;;;;5038320;28;20116;-85
2023/07/11 02:32:08;;;;;;;4.40;3.42;;;21.80;84.90;;;;;;5036618;28;20116;-86
2023/07/11 02:34:40;;;;;;;6.85;3.70;;;21.80;85.10;;;;;;5035465;28;20547;-86
2023/07/11 02:37:06;;;;;;;6.18;3.75;;;21.80;85.10;;;;;;5041127;28;20113;-86
2023/07/11 02:39:32;;;;;;;5.72;3.63;;;21.80;85.20;;;;;;5048572;28;20053;-86
2023/07/11 02:42:05;;;;;;;7.22;4.05;;;21.80;85.30;;;;;;5035619;28;20583;-85
2023/07/11 02:44:33;;;;;;;7.72;4.40;;;21.80;85.50;;;;;;5035663;28;20030;-86
2023/07/11 02:47:01;;;;;;;5.57;4.32;;;21.70;85.80;;;;;;5035792;28;20053;-86
2023/07/11 02:49:27;;;;;;;5.88;4.07;;;21.80;86.50;;;;;;5035624;28;20112;-86
2023/07/11 02:51:55;;;;;;;9.60;4.57;;;21.70;87.20;;;;;;5033437;28;20049;-85
2023/07/11 02:54:21;;;;;;;7.57;4.82;;;21.70;87.90;;;;;;5035428;28;20071;-85
2023/07/11 02:56:47;;;;;;;8.20;4.60;;;21.70;88.10;;;;;;5035417;28;20411;-85
2023/07/11 02:59:12;;;;;;;9.18;4.63;;;21.70;88.40;;;;;;5035554;28;20081;-85
2023/07/11 03:01:38;;;;;;;7.15;4.18;;;21.60;88.60;;;;;;5035464;28;20025;-85
2023/07/11 03:04:04;;;;;;;8.55;4.93;;;21.70;88.70;;;;;;5034805;28;20077;-86
2023/07/11 03:06:30;;;;;;;6.93;4.93;;;21.70;88.90;;;;;;5039052;28;20037;-86
2023/07/11 03:08:56;;;;;;;7.50;4.93;;;21.60;89.10;;;;;;5056622;28;20044;-86
2023/07/11 03:11:21;;;;;;;7.07;4.05;;;21.60;89.50;;;;;;5039278;28;20388;-85
2023/07/11 03:13:47;;;;;;;7.43;4.65;;;21.60;89.70;;;;;;5047661;28;20026;-85
2023/07/11 03:16:14;;;;;;;8.05;4.72;;;21.50;89.60;;;;;;5034838;28;20041;-86
2023/07/11 03:18:39;;;;;;;6.80;5.15;;;21.50;89.80;;;;;;5035435;28;20034;-85
2023/07/11 03:21:05;;;;;;;7.22;4.90;;;21.50;90.00;;;;;;5034564;28;20033;-86
2023/07/11 03:23:31;;;;;;;6.50;4.65;;;21.50;90.00;;;;;;5034484;28;20029;-86
2023/07/11 03:25:57;;;;;;;8.77;5.20;;;21.50;90.10;;;;;;5034474;28;20032;-86
2023/07/11 03:28:23;;;;;;;7.38;4.72;;;21.50;90.10;;;;;;5028684;28;20026;-85
2023/07/11 03:30:51;;;;;;;7.60;4.97;;;21.50;90.20;;;;;;5032018;28;20033;-86
2023/07/11 03:33:17;;;;;;;6.97;4.43;;;21.40;90.20;;;;;;5034695;28;20490;-84
2023/07/11 03:35:51;;;;;;;7.35;4.82;;;21.40;90.20;;;;;;5034165;28;20053;-85
2023/07/11 03:38:20;;;;;;;7.28;4.85;;;21.30;90.30;;;;;;5033996;28;20033;-86
2023/07/11 03:40:46;;;;;;;10.73;5.32;;;21.30;90.40;;;;;;5034765;28;20116;-85
2023/07/11 03:43:12;;;;;;;8.85;4.43;;;21.30;90.50;;;;;;5035174;28;20495;-85
2023/07/11 03:45:46;;;;;;;7.13;4.88;;;21.20;90.60;;;;;;5034622;28;20089;-86
2023/07/11 03:48:15;;;;;;;7.15;5.22;;;21.20;90.60;;;;;;5023677;28;20036;-85
2023/07/11 03:50:42;;;;;;;10.52;4.95;;;21.20;90.70;;;;;;5014776;28;20037;-86
2023/07/11 03:53:19;;;;;;;11.73;5.25;;;21.20;90.80;;;;;;5046161;28;20082;-85
2023/07/11 03:55:48;;;;;;;8.00;5.15;;;21.20;90.90;;;;;;5034648;28;20033;-85
2023/07/11 03:58:31;;;;;;;8.75;5.30;;;21.10;90.90;;;;;;5035012;28;20015;-85
2023/07/11 04:00:56;;;;;;;7.43;5.00;;;21.20;91.10;;;;;;5039111;28;20059;-86
2023/07/11 04:03:22;;;;;;;6.53;4.65;;;21.20;91.20;;;;;;5048751;28;20033;-86
2023/07/11 04:05:50;;;;;;;7.13;4.90;;;21.10;91.20;;;;;;5047917;28;20521;-85
2023/07/11 04:08:18;;;;;;;8.48;4.53;;;21.10;91.20;;;;;;5046861;28;20052;-85
2023/07/11 04:10:46;;;;;;;7.82;5.15;;;21.10;91.20;;;;;;5036363;28;20281;-85
2023/07/11 04:13:15;;;;;;;10.30;4.85;;;21.10;91.30;;;;;;5034699;28;20059;-86
2023/07/11 04:15:42;;;;;;;7.50;4.50;;;21.10;91.30;;;;;;5039290;28;20025;-85
2023/07/11 04:18:13;;;;;;;7.82;4.18;;;21.10;91.30;;;;;;5029239;28;20030;-85
2023/07/11 04:20:39;;;;;;;6.70;4.38;;;21.10;91.20;;;;;;5036472;28;20064;-85
2023/07/11 04:23:07;;;;;;;5.43;4.10;;;21.10;91.30;;;;;;5033648;28;20029;-86
2023/07/11 04:25:33;;;;;;;6.13;4.65;;;21.10;91.40;;;;;;5034015;28;20032;-86
2023/07/11 04:28:01;;;;;;;8.52;4.40;;;21.10;91.30;;;;;;5034100;28;20033;-85
2023/07/11 04:30:27;;;;;;;6.97;4.22;;;21.10;91.20;;;;;;5034133;28;20025;-86
2023/07/11 04:32:53;;;;;;;8.57;4.43;;;21.10;91.20;;;;;;5034177;28;20345;-85
2023/07/11 04:35:21;;;;;;;6.90;5.03;;;21.20;91.10;;;;;;5034107;28;20025;-86
2023/07/11 04:37:47;;;;;;;10.88;5.10;;;21.20;91.10;;;;;;5033543;28;20025;-85
2023/07/11 04:40:14;;;;;;;11.70;5.38;;;21.30;91.00;;;;;;5032742;28;20048;-86
2023/07/11 04:42:40;;;;;;;9.10;5.30;;;21.30;91.10;;;;;;5033909;28;20030;-85
2023/07/11 04:45:08;;;;;;;7.70;5.22;;;21.40;91.10;;;;;;5034231;28;20067;-85
2023/07/11 04:47:36;;;;;;;8.52;5.10;;;21.50;91.10;;;;;;5033956;28;20073;-85
2023/07/11 04:50:03;;;;;;;6.40;4.15;;;21.50;91.10;;;;;;5034290;28;20404;-86
2023/07/11 04:52:29;;;;;;;6.80;4.90;;;21.50;91.00;;;;;;5035147;28;20037;-85
2023/07/11 04:54:55;;;;;;;10.40;5.80;;;21.50;91.10;;;;;;5033027;28;20113;-85
2023/07/11 04:57:21;;;;;;;11.02;5.70;;;21.60;91.10;;;;;;5034076;28;20060;-85
2023/07/11 04:59:49;;;;;;;8.77;5.25;;;21.50;91.20;;;;;;5034421;28;20477;-85
2023/07/11 05:02:15;;;;;;;9.50;5.53;;;21.60;91.30;;;;;;5033996;28;20033;-85
2023/07/11 05:04:41;;;;;;;6.78;4.93;;;21.70;91.30;;;;;;5043578;28;20029;-86
2023/07/11 05:07:07;;;;;;;7.07;5.22;;;21.70;91.30;;;;;;5031162;28;20025;-85
2023/07/11 05:09:33;;;;;;;9.10;5.47;;;21.80;91.30;;;;;;5043000;28;20452;-86
2023/07/11 05:12:01;;;;;;;7.03;4.65;;;21.80;91.30;;;;;;5039286;28;20053;-85
2023/07/11 05:14:27;;;;;;;6.28;4.93;;;21.90;91.20;;;;;;5034762;28;20493;-86
2023/07/11 05:16:57;;;;;;;6.47;5.18;;;22.00;91.10;;;;;;5034244;28;20041;-86
2023/07/11 05:19:28;;;;;;;10.00;5.30;;;22.10;91.00;;;;;;5035107;28;20457;-85
2023/07/11 05:22:02;;;;;;;8.30;5.63;;;22.20;90.90;;;;;;5045874;28;20413;-87
2023/07/11 05:24:30;;;;;;;8.52;5.72;;;22.30;90.80;;;;;;5034691;28;20029;-86
2023/07/11 05:26:56;;;;;;;7.03;5.13;;;22.40;90.70;;;;;;5051124;28;20021;-85
2023/07/11 05:29:27;;;;;;;8.40;5.70;;;22.40;90.60;;;;;;5035199;28;20022;-86
2023/07/11 05:31:53;;;;;;;7.95;4.97;;;22.50;90.50;;;;;;5038477;28;20093;-85
2023/07/11 05:34:19;;;;;;;7.53;4.93;;;22.60;90.30;;;;;;5035986;28;20045;-76
2023/07/11 05:36:44;;;;;;;9.48;5.55;;;22.70;90.40;;;;;;5029196;28;20469;-76
2023/07/11 05:39:12;;;;;;;8.00;5.72;;;22.80;90.20;;;;;;5030334;28;20092;-75
2023/07/11 05:41:44;;;;;;;8.32;5.93;;;22.90;90.10;;;;;;5030142;28;20104;-75
2023/07/11 05:44:11;;;;;;;8.30;5.07;;;23.00;89.90;;;;;;5030218;28;20060;-75
2023/07/11 05:46:37;;;;;;;6.70;5.07;;;23.10;89.30;;;;;;5028751;28;20034;-75
2023/07/11 05:49:03;;;;;;;8.02;5.75;;;23.20;89.10;;;;;;5029770;28;20535;-76
2023/07/11 05:51:30;;;;;;;8.10;5.38;;;23.30;88.80;;;;;;5033611;28;20128;-76
2023/07/11 05:53:56;;;;;;;10.52;5.07;;;23.30;88.70;;;;;;5034583;28;20029;-76
2023/07/11 05:56:22;;;;;;;7.18;5.20;;;23.40;88.90;;;;;;5037776;28;20055;-86
2023/07/11 05:58:49;;;;;;;10.75;6.22;;;23.40;89.00;;;;;;5039220;28;20025;-86
2023/07/11 06:01:27;;;;;;;9.05;6.38;;;23.50;88.70;;;;;;5040754;28;20041;-89
2023/07/11 06:04:24;;;;;;;9.88;5.82;;;23.60;88.50;;;;;;5040639;28;20036;-88
2023/07/11 06:07:00;;;;;;;14.00;6.72;;;23.60;88.10;;;;;;5031558;28;20034;-88
2023/07/11 06:09:45;;;;;;;8.48;5.68;;;23.70;87.80;;;;;;5023881;28;20114;-88
2023/07/11 06:12:39;;;;;;;12.60;6.03;;;23.90;87.70;;;;;;5042844;28;20029;-88
2023/07/11 06:15:28;;;;;;;;;;;;;;;;;;;;;
2023/07/11 06:18:33;;;;;;;;;;;;;;;;;;;;;
2023/07/11 06:27:49;;;;;;;7.68;6.05;;;24.30;86.50;;;;;;5017728;28;20085;-88
2023/07/11 06:30:48;;;;;;;14.00;6.28;;;24.30;86.00;;;;;;5040222;28;20017;-89
2023/07/11 06:33:27;;;;;;;12.80;6.40;;;24.40;85.90;;;;;;5039666;28;20062;-88
2023/07/11 06:39:47;;;;;;;11.07;5.65;;;24.50;86.10;;;;;;5040346;28;20095;-88
2023/07/11 06:42:57;;;;;;;8.93;6.10;;;24.50;86.10;;;;;;5042921;28;20107;-88
2023/07/11 06:45:41;;;;;;;7.43;4.97;;;24.60;85.80;;;;;;5038723;28;20033;-89
2023/07/11 06:48:25;;;;;;;9.35;5.53;;;24.60;85.50;;;;;;5040548;28;20052;-89
2023/07/11 06:50:57;;;;;;;10.32;6.20;;;24.70;85.20;;;;;;5039975;28;20029;-89
2023/07/11 06:53:40;;;;;;;13.23;7.22;;;24.80;85.60;;;;;;5039128;28;20069;-89
2023/07/11 06:56:31;;;;;;;;;;;;;;;;;;;;;
2023/07/11 07:02:49;;;;;;;7.53;5.60;;;25.00;84.60;;;;;;5000201;28;20184;-89
2023/07/11 07:09:03;;;;;;;9.95;5.50;;;25.10;84.50;;;;;;5019146;28;20026;-89
2023/07/11 07:12:15;;;;;;;7.88;5.10;;;25.20;84.20;;;;;;5001555;28;20030;-88
2023/07/11 07:14:47;;;;;;;7.55;5.55;;;25.20;83.30;;;;;;5001839;28;20404;-88
2023/07/11 07:18:07;;;;;;;;;;;;;;;;;;;;;
2023/07/11 07:20:51;;;;;;;8.93;5.85;;;25.40;83.20;;;;;;5015357;28;20090;-88
2023/07/11 07:23:48;;;;;;;7.83;5.50;;;25.50;83.20;;;;;;5027945;28;20053;-88
2023/07/11 07:26:54;;;;;;;9.20;5.32;;;25.60;82.70;;;;;;5034159;28;20263;-88
2023/07/11 07:29:26;;;;;;;7.03;5.30;;;25.60;82.70;;;;;;5040231;28;20029;-88
2023/07/11 07:32:18;;;;;;;7.57;5.90;;;25.70;81.80;;;;;;5039577;28;20088;-89
2023/07/11 07:35:31;;;;;;;7.88;5.30;;;25.80;81.80;;;;;;5039840;28;20033;-88
2023/07/11 07:38:39;;;;;;;8.07;5.90;;;25.90;80.90;;;;;;5013236;28;20025;-88
2023/07/11 07:48:09;;;;;;;5.68;4.95;;;26.30;80.60;;;;;;5028177;28;20113;-89
2023/07/11 07:51:18;;;;;;;10.43;5.18;;;26.40;79.90;;;;;;4964657;28;20045;-89
2023/07/11 07:54:18;;;;;;;8.73;5.32;;;26.50;80.20;;;;;;4979595;28;20066;-89
2023/07/11 08:03:59;;;;;;;8.77;5.57;;;26.90;78.40;;;;;;5047529;23;20179;-77
2023/07/11 08:06:25;;;;;;;10.13;5.10;;;27.00;78.40;;;;;;5037462;28;21263;-77
2023/07/11 08:08:51;;;;;;;10.27;5.15;;;27.10;78.00;;;;;;5033913;28;20120;-76
2023/07/11 08:11:20;;;;;;;9.93;5.30;;;27.20;77.80;;;;;;5013912;28;20037;-77
2023/07/11 08:13:46;;;;;;;7.35;5.28;;;27.20;77.10;;;;;;5038626;28;20032;-77
2023/07/11 08:16:12;;;;;;;9.70;5.80;;;27.30;76.90;;;;;;5032109;28;20044;-76
2023/07/11 08:18:37;;;;;;;10.48;5.47;;;27.40;77.10;;;;;;5032091;28;20052;-80
2023/07/11 08:21:03;;;;;;;9.52;6.13;;;27.50;77.30;;;;;;5028473;28;20037;-80
2023/07/11 08:23:29;;;;;;;9.35;5.63;;;27.60;77.60;;;;;;5027592;28;20080;-79
2023/07/11 08:25:55;;;;;;;8.73;5.07;;;27.80;77.50;;;;;;5011746;28;20136;-78
2023/07/11 08:28:21;;;;;;;8.73;5.15;;;28.00;76.20;;;;;;5011802;28;20033;-80
2023/07/11 08:30:47;;;;;;;7.57;5.15;;;28.10;76.20;;;;;;5024147;28;20056;-80
2023/07/11 08:33:14;;;;;;;12.65;6.10;;;28.10;76.10;;;;;;5026537;28;20049;-81
2023/07/11 08:35:40;;;;;;;6.78;5.20;;;28.20;75.50;;;;;;5002676;28;20077;-80
2023/07/11 08:38:11;;;;;;;7.28;5.38;;;28.30;75.50;;;;;;5028608;28;20029;-81
2023/07/11 08:40:42;;;;;;;9.23;5.05;;;28.30;75.90;;;;;;5011091;28;20057;-81
2023/07/11 08:43:14;;;;;;;13.85;5.85;;;28.50;75.40;;;;;;5028369;28;20037;-79
2023/07/11 08:45:59;;;;;;;8.75;6.03;;;28.60;75.70;;;;;;5029272;28;20033;-80
2023/07/11 08:48:31;;;;;;;7.78;5.60;;;28.70;75.50;;;;;;5029284;28;20029;-80
2023/07/11 08:51:17;;;;;;;8.57;5.53;;;28.80;74.90;;;;;;5028964;28;20047;-81
2023/07/11 08:53:47;;;;;;;9.02;5.28;;;28.80;74.80;;;;;;5013531;28;20075;-80
2023/07/11 08:56:22;;;;;;;7.95;5.70;;;28.90;74.80;;;;;;5014130;28;20054;-80
2023/07/11 08:58:50;;;;;;;12.38;5.95;;;29.00;75.00;;;;;;5010884;28;20025;-79
2023/07/11 09:01:35;;;;;;;11.90;5.53;;;29.10;75.00;;;;;;5015201;28;20026;-79
2023/07/11 09:04:03;;;;;;;8.90;5.50;;;29.20;74.30;;;;;;5034163;28;20037;-79
2023/07/11 09:06:42;;;;;;;10.15;5.47;;;29.30;74.10;;;;;;5029915;28;20028;-80
2023/07/11 09:09:10;;;;;;;9.07;5.32;;;29.40;74.30;;;;;;5031241;28;20065;-80
2023/07/11 09:11:44;;;;;;;12.30;4.55;;;29.40;73.90;;;;;;5011328;28;20056;-80
2023/07/11 09:14:44;;;;;;;6.65;5.13;;;29.60;74.00;;;;;;5030573;28;20087;-80
2023/07/11 09:17:16;;;;;;;7.72;5.43;;;29.60;73.40;;;;;;5029183;28;20022;-82
2023/07/11 09:20:06;;;;;;;8.10;5.38;;;29.70;72.40;;;;;;5012681;28;20124;-79
2023/07/11 09:22:35;;;;;;;5.70;4.82;;;29.80;72.80;;;;;;5015717;28;20384;-80
2023/07/11 09:25:17;;;;;;;11.18;5.38;;;29.90;72.80;;;;;;5019160;28;20496;-81
2023/07/11 09:27:48;;;;;;;8.23;5.15;;;29.90;72.00;;;;;;5032480;28;20503;-81
2023/07/11 09:30:24;;;;;;;7.93;5.32;;;29.90;71.10;;;;;;5013372;28;20049;-81
2023/07/11 09:32:49;;;;;;;7.65;5.00;;;30.00;70.70;;;;;;5031021;28;20026;-82
2023/07/11 09:35:30;;;;;;;7.35;4.95;;;30.00;70.90;;;;;;5035682;28;20075;-81
2023/07/11 09:38:05;;;;;;;5.95;4.20;;;30.10;69.30;;;;;;5032075;28;20028;-82
2023/07/11 09:40:39;;;;;;;8.40;5.00;;;30.20;66.60;;;;;;5018909;28;20021;-81
2023/07/11 09:43:04;;;;;;;;;;;30.30;66.50;;;;;;5029493;28;20403;-80
2023/07/11 09:45:37;;;;;;;10.35;5.22;;;30.40;65.80;;;;;;5033386;28;19909;-81
2023/07/11 09:48:08;;;;;;;7.75;4.65;;;30.50;65.80;;;;;;5030635;28;20040;-82
2023/07/11 09:50:39;;;;;;;8.57;5.22;;;30.50;67.00;;;;;;5033430;28;20032;-82
2023/07/11 09:53:13;;;;;;;8.60;5.38;;;30.60;67.60;;;;;;5013263;28;20033;-82
2023/07/11 09:55:39;;;;;;;8.75;5.35;;;30.70;68.00;;;;;;5036498;28;20022;-82
2023/07/11 09:58:05;;;;;;;6.63;5.18;;;30.80;68.10;;;;;;5034859;28;20025;-81
2023/07/11 10:00:31;;;;;;;8.18;5.40;;;30.90;68.10;;;;;;5034950;28;20052;-81
2023/07/11 10:02:59;;;;;;;9.90;5.50;;;30.90;67.90;;;;;;5038679;28;20057;-81
2023/07/11 10:05:25;;;;;;;9.10;5.20;;;30.90;67.70;;;;;;5037944;28;20391;-82
2023/07/11 10:08:01;;;;;;;7.20;5.68;;;31.00;67.90;;;;;;5036689;28;20049;-82
2023/07/11 10:10:27;;;;;;;7.63;5.68;;;31.00;68.20;;;;;;5014079;28;20049;-82
2023/07/11 10:12:52;;;;;;;9.80;5.03;;;31.10;68.30;;;;;;5022006;28;20052;-81
2023/07/11 10:15:18;;;;;;;8.02;5.35;;;31.10;67.80;;;;;;5040314;28;20488;-81
2023/07/11 10:17:45;;;;;;;8.00;5.45;;;31.10;67.40;;;;;;5031808;28;20083;-81
2023/07/11 10:20:18;;;;;;;7.25;4.93;;;31.10;67.30;;;;;;5018773;28;20021;-82
2023/07/11 10:22:51;;;;;;;11.75;5.72;;;31.20;67.50;;;;;;5037695;28;20026;-82
2023/07/11 10:25:27;;;;;;;6.77;4.83;;;31.20;67.20;;;;;;5037301;28;20670;-80
2023/07/11 10:28:14;;;;;;;7.25;5.53;;;31.20;68.10;;;;;;5040068;28;20270;-81
2023/07/11 10:30:41;;;;;;;9.93;5.95;;;31.30;67.20;;;;;;5036360;28;20191;-80
2023/07/11 10:33:19;;;;;;;7.00;5.18;;;31.40;67.60;;;;;;5017820;28;20384;-80
2023/07/11 10:35:50;;;;;;;7.95;5.70;;;31.50;67.60;;;;;;5036887;28;20029;-81
2023/07/11 10:38:45;;;;;;;8.07;4.95;;;31.50;66.80;;;;;;5035357;28;20017;-81
2023/07/11 10:41:18;;;;;;;7.70;5.63;;;31.50;67.10;;;;;;5036099;28;20025;-80
2023/07/11 10:43:44;;;;;;;8.32;5.88;;;31.70;66.40;;;;;;5015671;28;20024;-81
2023/07/11 10:46:44;;;;;;;6.10;5.22;;;31.80;66.00;;;;;;5041194;28;20029;-81
2023/07/11 10:49:16;;;;;;;12.15;6.07;;;31.90;66.10;;;;;;5033643;28;20108;-79
2023/07/11 10:51:51;;;;;;;7.45;5.70;;;31.90;65.80;;;;;;5037941;28;20026;-81
2023/07/11 10:54:35;;;;;;;8.25;6.00;;;31.90;65.80;;;;;;5036092;28;20026;-79
2023/07/11 10:57:13;;;;;;;9.02;6.22;;;32.00;65.60;;;;;;5034246;28;20021;-79
2023/07/11 10:59:38;;;;;;;8.50;5.55;;;32.10;65.60;;;;;;5010940;28;20637;-80
2023/07/11 11:02:31;;;;;;;10.00;5.78;;;32.10;65.80;;;;;;5036222;28;20032;-80
2023/07/11 11:05:18;;;;;;;7.43;5.07;;;32.00;66.10;;;;;;5013271;28;20432;-81
2023/07/11 11:07:51;;;;;;;10.30;5.78;;;32.00;66.00;;;;;;5036282;28;20087;-79
2023/07/11 11:10:32;;;;;;;8.80;5.18;;;31.90;66.20;;;;;;5032788;28;22178;-81
2023/07/11 11:12:58;;;;;;;6.70;5.68;;;32.00;66.40;;;;;;5017028;28;20102;-81
2023/07/11 11:15:51;;;;;;;7.07;5.88;;;32.10;66.30;;;;;;5033532;28;20024;-80
2023/07/11 11:18:46;;;;;;;8.05;5.97;;;32.10;66.30;;;;;;5035337;28;20026;-81
2023/07/11 11:21:20;;;;;;;9.32;5.35;;;32.10;66.20;;;;;;4991542;28;20033;-82
2023/07/11 11:24:25;;;;;;;8.25;5.70;;;32.10;66.30;;;;;;5032334;28;20025;-80
2023/07/11 11:26:57;;;;;;;7.75;5.35;;;32.20;66.20;;;;;;5016263;28;20044;-80
2023/07/11 11:29:44;;;;;;;7.43;5.55;;;32.20;65.90;;;;;;5013454;28;20033;-80
2023/07/11 11:32:09;;;;;;;8.20;5.20;;;32.30;66.00;;;;;;5018547;28;20041;-81
2023/07/11 11:34:56;;;;;;;12.25;6.10;;;32.30;65.90;;;;;;5031841;28;20026;-81
2023/07/11 11:38:06;;;;;;;8.00;5.38;;;32.30;65.70;;;;;;5014366;28;20025;-81
2023/07/11 11:40:37;;;;;;;9.15;5.82;;;32.30;66.10;;;;;;5034494;28;20028;-81
2023/07/11 11:43:06;;;;;;;7.28;6.25;;;32.40;65.80;;;;;;5035715;28;20025;-81
2023/07/11 11:45:33;;;;;;;7.10;5.57;;;32.40;65.70;;;;;;5029549;28;20073;-81
2023/07/11 11:48:02;;;;;;;11.73;6.00;;;32.50;66.00;;;;;;5038391;28;20085;-80
2023/07/11 11:50:30;;;;;;;9.93;5.95;;;32.50;65.90;;;;;;5028773;28;20489;-81
2023/07/11 11:53:15;;;;;;;10.35;5.85;;;32.70;66.00;;;;;;5031308;28;20395;-81
2023/07/11 11:55:48;;;;;;;11.80;5.97;;;32.60;65.40;;;;;;5015614;28;20031;-82
2023/07/11 11:58:15;;;;;;;;;;;32.80;65.80;;;;;;5035104;28;20028;-81
2023/07/11 12:00:51;;;;;;;9.32;5.93;;;32.70;66.00;;;;;;5032714;28;19909;-82
2023/07/11 12:03:39;;;;;;;7.95;6.00;;;32.70;65.30;;;;;;5038313;28;20041;-81
2023/07/11 12:06:29;;;;;;;8.95;6.50;;;32.70;65.60;;;;;;5033725;28;20571;-81
2023/07/11 12:09:16;;;;;;;8.73;5.43;;;32.80;65.50;;;;;;5031115;28;20030;-82
2023/07/11 12:12:03;;;;;;;11.93;5.97;;;32.70;65.70;;;;;;5032709;28;20069;-82
2023/07/11 12:14:36;;;;;;;8.82;5.93;;;32.70;65.60;;;;;;5028289;28;20498;-81
2023/07/11 12:17:02;;;;;;;8.57;6.20;;;32.70;65.70;;;;;;5032701;28;20036;-82
2023/07/11 12:19:41;;;;;;;8.82;6.40;;;32.80;65.80;;;;;;5033840;28;20030;-81
2023/07/11 12:22:07;;;;;;;7.90;7.10;;;32.80;66.00;;;;;;5036177;28;20028;-82
2023/07/11 12:24:33;;;;;;;9.00;6.43;;;32.90;65.50;;;;;;5043418;28;20064;-79
2023/07/11 12:27:18;;;;;;;9.40;6.15;;;33.10;65.30;;;;;;5034393;28;20052;-78
2023/07/11 12:29:47;;;;;;;7.93;5.88;;;33.20;64.90;;;;;;5011567;28;20365;-80
2023/07/11 12:32:30;;;;;;;9.93;6.28;;;33.20;64.90;;;;;;5030166;28;20033;-80
2023/07/11 12:35:05;;;;;;;12.20;6.75;;;33.20;64.30;;;;;;5030113;28;20085;-79
2023/07/11 12:38:01;;;;;;;7.68;6.35;;;33.20;64.00;;;;;;5026508;28;20025;-81
2023/07/11 12:40:33;;;;;;;7.20;6.13;;;33.20;64.10;;;;;;5031194;28;20033;-81
2023/07/11 12:43:08;;;;;;;7.68;6.38;;;33.30;64.10;;;;;;5016287;28;20174;-81
2023/07/11 12:45:37;;;;;;;9.20;6.80;;;33.30;64.10;;;;;;5010623;28;20083;-82
2023/07/11 12:48:15;;;;;;;8.20;5.80;;;33.30;63.70;;;;;;5033295;28;20438;-79
2023/07/11 12:50:49;;;;;;;12.20;6.50;;;33.30;63.70;;;;;;5036133;28;20028;-82
2023/07/11 12:53:16;;;;;;;10.32;6.45;;;33.40;63.90;;;;;;5035771;28;20527;-81
2023/07/11 12:55:47;;;;;;;9.10;6.53;;;33.40;63.60;;;;;;5027549;28;20076;-79
2023/07/11 12:58:23;;;;;;;10.48;6.53;;;33.50;63.60;;;;;;5015089;28;20022;-82
2023/07/11 13:00:51;;;;;;;9.27;6.10;;;33.50;63.90;;;;;;5017399;28;20480;-81
2023/07/11 13:03:26;;;;;;;9.43;6.07;;;33.50;63.60;;;;;;5019694;28;20391;-81
2023/07/11 13:05:57;;;;;;;11.10;6.13;;;33.40;62.00;;;;;;5036713;28;20029;-80
2023/07/11 13:08:36;;;;;;;8.10;6.75;;;33.30;62.00;;;;;;5033221;28;20033;-80
2023/07/11 13:11:05;;;;;;;9.85;6.10;;;33.40;62.90;;;;;;5039316;28;20514;-79
2023/07/11 13:13:33;;;;;;;8.98;6.28;;;33.30;63.10;;;;;;5040576;28;20021;-79
2023/07/11 13:16:04;;;;;;;7.38;6.50;;;33.60;61.80;;;;;;5018138;28;20071;-80
2023/07/11 13:18:41;;;;;;;10.85;5.65;;;33.80;60.60;;;;;;5016256;28;20400;-81
2023/07/11 13:21:08;;;;;;;8.32;6.22;;;34.00;60.30;;;;;;5030981;28;20026;-83
2023/07/11 13:23:38;;;;;;;8.77;5.90;;;34.10;60.20;;;;;;5017895;28;20057;-82
2023/07/11 13:26:26;;;;;;;9.38;6.95;;;34.20;59.90;;;;;;5019333;28;20553;-82
2023/07/11 13:29:13;;;;;;;12.65;6.22;;;34.30;59.60;;;;;;5038112;28;20014;-81
2023/07/11 13:31:39;;;;;;;12.60;7.15;;;34.50;59.80;;;;;;5038839;28;20033;-82
2023/07/11 13:34:20;;;;;;;8.23;6.78;;;34.50;59.80;;;;;;5035640;28;20029;-81
2023/07/11 13:36:48;;;;;;;13.57;7.10;;;34.50;61.00;;;;;;5037528;28;20651;-82
2023/07/11 13:39:15;;;;;;;8.77;6.10;;;34.50;60.00;;;;;;5030205;28;20022;-82
2023/07/11 13:41:47;;;;;;;6.55;5.50;;;34.60;59.00;;;;;;5036157;28;20021;-82
2023/07/11 13:44:15;;;;;;;7.15;5.75;;;34.60;58.70;;;;;;5039337;28;20025;-82
2023/07/11 13:46:43;;;;;;;8.95;5.65;;;34.60;58.40;;;;;;5037497;28;20018;-82
2023/07/11 13:49:32;;;;;;;9.18;6.07;;;34.60;58.10;;;;;;5035562;28;20021;-82
2023/07/11 13:51:59;;;;;;;10.43;5.68;;;34.60;58.20;;;;;;5034903;28;20052;-82